Wichita, KS

7:16 AM CDT on August 28, 2014 (GMT -0500)
300 North Baehr | Change Station
CLOSE
Current Station
Personal Weather Station
Location: Wichita, KS
Elevation: 1322 ft
Nearby Weather Stations

Elev 1322 ft 37.69 °N, 97.40 °W | Updated 5 minutes ago

Mostly Cloudy
Mostly Cloudy
78.6 °F
Feels Like 81 °F
N
0.0
Wind Variable Wind from NE

Today
High -- | Low -- °F
--% Chance of Precip.
Yesterday
High -- | Low -- °F
Precip. -- in
6:56 AM 8:04 PM
Waxing Crescent, 8% visible
Pressure 29.91 in
Visibility 10.0 miles
Clouds Scattered Clouds 8000 ft
Mostly Cloudy 13000 ft
Mostly Cloudy 16000 ft
Mostly Cloudy 25000 ft
Heat Index 81 °F
Dew Point 67 °F
Humidity 67%
Rainfall 0.00 in
Snow Depth Not available.
UV 0 out of 12
Pollen 10.70 out of 12
Air Quality Not available.
Flu Activity Not available.
METAR KICT 281153Z 18007KT 10SM SCT080 BKN130 BKN160 BKN250 25/18 A2996 RMK AO2 SLP129 ACC NE-SE SHRA DSNT SW-NW T02500183 10267 20250 51005

More Conditions Fewer Conditions

Pressure 29.91 in
Visibility 10.0 miles
Clouds Scattered Clouds 8000 ft
Mostly Cloudy 13000 ft
Mostly Cloudy 16000 ft
Mostly Cloudy 25000 ft
Heat Index 81 °F
Dew Point 67 °F
Humidity 67%
Rainfall 0.00 in
Snow Depth Not available.
UV 0 out of 12
Pollen 10.70 out of 12
Air Quality Not available.
Flu Activity Not available.
METAR KICT 281153Z 18007KT 10SM SCT080 BKN130 BKN160 BKN250 25/18 A2996 RMK AO2 SLP129 ACC NE-SE SHRA DSNT SW-NW T02500183 10267 20250 51005

More Conditions Fewer Conditions

10-Day Weather Forecast

Almanac

Astronomy

Aug. 28, 2014 Rise Set
Actual Time 6:56 AM CDT 8:04 PM CDT
Civil Twilight 6:29 AM CDT 8:31 PM CDT
Nautical Twilight 5:56 AM CDT 9:03 PM CDT
Astronomical Twilight 5:23 AM CDT 9:36 PM CDT
Moon 9:45 AM CDT 9:33 PM CDT
Length of Visible Light 14h 02m
Length of Day
13h 08m
Tomorrow will be 2m 17s shorter.
Waxing Crescent, 8% of the Moon is Illuminated
Today
Waxing Crescent
Sep 2
First Quarter
Sep 8
Full
Sep 15
Last Quarter
Sep 24
New

Today's Extremes

State Highs State Lows

Community

WunderPhotos

Upload Photos

1,747,932 photos uploaded!

Nearby

Snow Depth

Station Depth Elevation
No new snow has been reported.

Earthquake Activity

City Distance Mag. Time & Date
Stillwater, Oklahoma 109 miles 3.1 10:44 AM CDT
2014-08-27
Anthony, Kansas 52 miles 2.8 10:11 AM CDT
2014-08-27
Guthrie, Oklahoma 129 miles 3.2 11:05 AM CDT
2014-08-26
Perry, Oklahoma 102 miles 2.5 8:07 AM CDT
2014-08-26
Minimum magnitude displayed is 2.5.

Coastal Water Temperatures

Place Temperature
No Stations Reporting

Nearby Weather Stations